sensor_id;sensor_type;location;lat;lon;timestamp;P1;durP1;ratioP1;P2;durP2;ratioP2
8036;SDS011;4061;51.360;7.340;2023-09-12T00:00:30;11.02;;;5.07;;
8036;SDS011;4061;51.360;7.340;2023-09-12T00:02:57;10.50;;;5.35;;
8036;SDS011;4061;51.360;7.340;2023-09-12T00:05:25;8.40;;;5.82;;
8036;SDS011;4061;51.360;7.340;2023-09-12T00:07:52;7.38;;;6.07;;
8036;SDS011;4061;51.360;7.340;2023-09-12T00:10:19;10.65;;;5.85;;
8036;SDS011;4061;51.360;7.340;2023-09-12T00:12:46;6.40;;;5.32;;
8036;SDS011;4061;51.360;7.340;2023-09-12T00:15:13;8.80;;;5.50;;
8036;SDS011;4061;51.360;7.340;2023-09-12T00:17:40;8.50;;;4.95;;
8036;SDS011;4061;51.360;7.340;2023-09-12T00:20:08;14.85;;;5.55;;
8036;SDS011;4061;51.360;7.340;2023-09-12T00:22:36;6.75;;;4.90;;
8036;SDS011;4061;51.360;7.340;2023-09-12T00:25:03;5.28;;;4.78;;
8036;SDS011;4061;51.360;7.340;2023-09-12T00:27:30;9.32;;;5.07;;
8036;SDS011;4061;51.360;7.340;2023-09-12T00:29:57;11.25;;;5.05;;
8036;SDS011;4061;51.360;7.340;2023-09-12T00:32:24;6.68;;;4.43;;
8036;SDS011;4061;51.360;7.340;2023-09-12T00:34:52;5.68;;;4.30;;
8036;SDS011;4061;51.360;7.340;2023-09-12T00:37:19;4.88;;;4.07;;
8036;SDS011;4061;51.360;7.340;2023-09-12T00:39:47;5.63;;;3.78;;
8036;SDS011;4061;51.360;7.340;2023-09-12T00:42:15;3.80;;;3.40;;
8036;SDS011;4061;51.360;7.340;2023-09-12T00:44:42;3.17;;;2.95;;
8036;SDS011;4061;51.360;7.340;2023-09-12T00:47:08;6.90;;;3.30;;
8036;SDS011;4061;51.360;7.340;2023-09-12T00:49:37;2.65;;;2.53;;
8036;SDS011;4061;51.360;7.340;2023-09-12T00:52:05;4.20;;;2.83;;
8036;SDS011;4061;51.360;7.340;2023-09-12T00:54:33;2.72;;;2.53;;
8036;SDS011;4061;51.360;7.340;2023-09-12T00:57:01;3.88;;;2.05;;
8036;SDS011;4061;51.360;7.340;2023-09-12T00:59:28;5.05;;;2.47;;
8036;SDS011;4061;51.360;7.340;2023-09-12T01:01:55;2.03;;;1.92;;
8036;SDS011;4061;51.360;7.340;2023-09-12T01:04:23;3.47;;;2.17;;
8036;SDS011;4061;51.360;7.340;2023-09-12T01:06:50;2.67;;;2.17;;
8036;SDS011;4061;51.360;7.340;2023-09-12T01:09:17;2.17;;;2.00;;
8036;SDS011;4061;51.360;7.340;2023-09-12T01:11:44;2.33;;;2.20;;
8036;SDS011;4061;51.360;7.340;2023-09-12T01:14:13;3.65;;;2.22;;
8036;SDS011;4061;51.360;7.340;2023-09-12T01:16:40;2.22;;;1.90;;
8036;SDS011;4061;51.360;7.340;2023-09-12T01:19:07;3.08;;;2.00;;
8036;SDS011;4061;51.360;7.340;2023-09-12T01:21:40;2.60;;;1.95;;
8036;SDS011;4061;51.360;7.340;2023-09-12T01:24:13;2.35;;;2.25;;
8036;SDS011;4061;51.360;7.340;2023-09-12T01:26:48;2.80;;;2.28;;
8036;SDS011;4061;51.360;7.340;2023-09-12T01:29:17;3.50;;;2.40;;
8036;SDS011;4061;51.360;7.340;2023-09-12T01:31:45;2.28;;;1.88;;
8036;SDS011;4061;51.360;7.340;2023-09-12T01:34:12;2.75;;;2.45;;
8036;SDS011;4061;51.360;7.340;2023-09-12T01:36:40;2.83;;;2.60;;
8036;SDS011;4061;51.360;7.340;2023-09-12T01:39:07;6.38;;;2.28;;
8036;SDS011;4061;51.360;7.340;2023-09-12T01:41:34;2.47;;;2.25;;
8036;SDS011;4061;51.360;7.340;2023-09-12T01:44:02;3.25;;;2.45;;
8036;SDS011;4061;51.360;7.340;2023-09-12T01:46:31;2.50;;;2.30;;
8036;SDS011;4061;51.360;7.340;2023-09-12T01:48:59;2.47;;;2.28;;
8036;SDS011;4061;51.360;7.340;2023-09-12T01:51:27;4.10;;;2.30;;
8036;SDS011;4061;51.360;7.340;2023-09-12T01:53:54;3.25;;;2.95;;
8036;SDS011;4061;51.360;7.340;2023-09-12T01:56:22;5.60;;;3.70;;
8036;SDS011;4061;51.360;7.340;2023-09-12T01:58:50;9.02;;;3.58;;
8036;SDS011;4061;51.360;7.340;2023-09-12T02:01:17;4.70;;;3.88;;
8036;SDS011;4061;51.360;7.340;2023-09-12T02:03:45;10.18;;;3.42;;
8036;SDS011;4061;51.360;7.340;2023-09-12T02:06:12;6.57;;;3.83;;
8036;SDS011;4061;51.360;7.340;2023-09-12T02:08:39;5.93;;;4.18;;
8036;SDS011;4061;51.360;7.340;2023-09-12T02:11:06;7.95;;;4.03;;
8036;SDS011;4061;51.360;7.340;2023-09-12T02:13:33;5.50;;;3.90;;
8036;SDS011;4061;51.360;7.340;2023-09-12T02:16:01;7.75;;;4.70;;
8036;SDS011;4061;51.360;7.340;2023-09-12T02:18:28;10.07;;;5.25;;
8036;SDS011;4061;51.360;7.340;2023-09-12T02:20:57;8.65;;;4.60;;
8036;SDS011;4061;51.360;7.340;2023-09-12T02:23:24;9.52;;;5.32;;
8036;SDS011;4061;51.360;7.340;2023-09-12T02:25:51;8.18;;;5.35;;
8036;SDS011;4061;51.360;7.340;2023-09-12T02:28:18;12.95;;;5.75;;
8036;SDS011;4061;51.360;7.340;2023-09-12T02:30:45;11.20;;;5.57;;
8036;SDS011;4061;51.360;7.340;2023-09-12T02:33:12;7.43;;;5.38;;
8036;SDS011;4061;51.360;7.340;2023-09-12T02:35:39;7.32;;;5.30;;
8036;SDS011;4061;51.360;7.340;2023-09-12T02:38:08;12.50;;;5.75;;
8036;SDS011;4061;51.360;7.340;2023-09-12T02:40:35;8.48;;;6.05;;
8036;SDS011;4061;51.360;7.340;2023-09-12T02:43:02;7.47;;;5.50;;
8036;SDS011;4061;51.360;7.340;2023-09-12T02:45:29;6.80;;;5.10;;
8036;SDS011;4061;51.360;7.340;2023-09-12T02:47:56;8.90;;;4.70;;
8036;SDS011;4061;51.360;7.340;2023-09-12T02:50:23;12.68;;;5.60;;
8036;SDS011;4061;51.360;7.340;2023-09-12T02:52:50;6.68;;;4.15;;
8036;SDS011;4061;51.360;7.340;2023-09-12T02:55:19;9.23;;;4.70;;
8036;SDS011;4061;51.360;7.340;2023-09-12T02:57:46;9.93;;;4.65;;
8036;SDS011;4061;51.360;7.340;2023-09-12T03:00:13;8.32;;;5.25;;
8036;SDS011;4061;51.360;7.340;2023-09-12T03:02:40;11.20;;;5.38;;
8036;SDS011;4061;51.360;7.340;2023-09-12T03:05:07;8.73;;;4.40;;
8036;SDS011;4061;51.360;7.340;2023-09-12T03:07:34;7.25;;;5.32;;
8036;SDS011;4061;51.360;7.340;2023-09-12T03:10:01;9.45;;;6.22;;
8036;SDS011;4061;51.360;7.340;2023-09-12T03:12:30;9.60;;;5.45;;
8036;SDS011;4061;51.360;7.340;2023-09-12T03:14:57;10.13;;;6.03;;
8036;SDS011;4061;51.360;7.340;2023-09-12T03:17:24;14.68;;;6.63;;
8036;SDS011;4061;51.360;7.340;2023-09-12T03:19:51;10.07;;;7.05;;
8036;SDS011;4061;51.360;7.340;2023-09-12T03:22:18;12.07;;;7.25;;
8036;SDS011;4061;51.360;7.340;2023-09-12T03:24:46;12.65;;;6.47;;
8036;SDS011;4061;51.360;7.340;2023-09-12T03:27:13;14.18;;;6.90;;
8036;SDS011;4061;51.360;7.340;2023-09-12T03:29:41;16.70;;;7.53;;
8036;SDS011;4061;51.360;7.340;2023-09-12T03:32:08;18.50;;;7.90;;
8036;SDS011;4061;51.360;7.340;2023-09-12T03:34:35;15.38;;;8.13;;
8036;SDS011;4061;51.360;7.340;2023-09-12T03:37:02;12.02;;;7.75;;
8036;SDS011;4061;51.360;7.340;2023-09-12T03:39:29;13.55;;;8.30;;
8036;SDS011;4061;51.360;7.340;2023-09-12T03:41:56;18.08;;;8.60;;
8036;SDS011;4061;51.360;7.340;2023-09-12T03:44:23;15.93;;;7.60;;
8036;SDS011;4061;51.360;7.340;2023-09-12T03:46:52;10.30;;;5.78;;
8036;SDS011;4061;51.360;7.340;2023-09-12T03:49:19;10.10;;;6.30;;
8036;SDS011;4061;51.360;7.340;2023-09-12T03:51:46;13.45;;;6.45;;
8036;SDS011;4061;51.360;7.340;2023-09-12T03:54:13;9.82;;;6.55;;
8036;SDS011;4061;51.360;7.340;2023-09-12T03:56:40;10.00;;;6.18;;
8036;SDS011;4061;51.360;7.340;2023-09-12T03:59:07;12.05;;;7.00;;
8036;SDS011;4061;51.360;7.340;2023-09-12T04:01:34;13.68;;;7.38;;
8036;SDS011;4061;51.360;7.340;2023-09-12T04:04:03;10.85;;;6.95;;
8036;SDS011;4061;51.360;7.340;2023-09-12T04:06:30;15.65;;;6.70;;
8036;SDS011;4061;51.360;7.340;2023-09-12T04:08:57;12.00;;;6.60;;
8036;SDS011;4061;51.360;7.340;2023-09-12T04:11:24;10.93;;;6.35;;
8036;SDS011;4061;51.360;7.340;2023-09-12T04:13:51;17.75;;;7.40;;
8036;SDS011;4061;51.360;7.340;2023-09-12T04:16:18;10.45;;;6.28;;
8036;SDS011;4061;51.360;7.340;2023-09-12T04:18:45;9.20;;;5.55;;
8036;SDS011;4061;51.360;7.340;2023-09-12T04:21:13;6.53;;;5.18;;
8036;SDS011;4061;51.360;7.340;2023-09-12T04:23:40;7.75;;;4.50;;
8036;SDS011;4061;51.360;7.340;2023-09-12T04:26:07;8.02;;;5.30;;
8036;SDS011;4061;51.360;7.340;2023-09-12T04:28:35;10.18;;;5.63;;
8036;SDS011;4061;51.360;7.340;2023-09-12T04:31:02;6.68;;;5.47;;
8036;SDS011;4061;51.360;7.340;2023-09-12T04:33:29;8.68;;;5.35;;
8036;SDS011;4061;51.360;7.340;2023-09-12T04:35:57;11.32;;;6.07;;
8036;SDS011;4061;51.360;7.340;2023-09-12T04:38:26;9.50;;;5.28;;
8036;SDS011;4061;51.360;7.340;2023-09-12T04:40:54;8.75;;;4.75;;
8036;SDS011;4061;51.360;7.340;2023-09-12T04:43:21;14.68;;;5.70;;
8036;SDS011;4061;51.360;7.340;2023-09-12T04:45:48;8.73;;;5.53;;
8036;SDS011;4061;51.360;7.340;2023-09-12T04:48:15;8.43;;;5.22;;
8036;SDS011;4061;51.360;7.340;2023-09-12T04:50:42;6.40;;;5.13;;
8036;SDS011;4061;51.360;7.340;2023-09-12T04:53:10;6.78;;;4.90;;
8036;SDS011;4061;51.360;7.340;2023-09-12T04:55:38;9.38;;;4.72;;
8036;SDS011;4061;51.360;7.340;2023-09-12T04:58:05;8.35;;;5.68;;
8036;SDS011;4061;51.360;7.340;2023-09-12T05:00:33;11.95;;;5.57;;
8036;SDS011;4061;51.360;7.340;2023-09-12T05:03:00;9.90;;;5.35;;
8036;SDS011;4061;51.360;7.340;2023-09-12T05:05:28;8.30;;;5.45;;
8036;SDS011;4061;51.360;7.340;2023-09-12T05:07:55;12.00;;;6.28;;
8036;SDS011;4061;51.360;7.340;2023-09-12T05:10:22;13.65;;;6.50;;
8036;SDS011;4061;51.360;7.340;2023-09-12T05:12:51;9.98;;;5.97;;
8036;SDS011;4061;51.360;7.340;2023-09-12T05:15:18;12.07;;;5.95;;
8036;SDS011;4061;51.360;7.340;2023-09-12T05:17:45;16.90;;;5.85;;
8036;SDS011;4061;51.360;7.340;2023-09-12T05:20:12;9.75;;;5.90;;
8036;SDS011;4061;51.360;7.340;2023-09-12T05:22:39;15.60;;;6.07;;
8036;SDS011;4061;51.360;7.340;2023-09-12T05:25:07;6.13;;;5.22;;
8036;SDS011;4061;51.360;7.340;2023-09-12T05:27:34;6.72;;;5.28;;
8036;SDS011;4061;51.360;7.340;2023-09-12T05:30:02;10.55;;;5.70;;
8036;SDS011;4061;51.360;7.340;2023-09-12T05:32:29;8.32;;;5.88;;
8036;SDS011;4061;51.360;7.340;2023-09-12T05:34:57;11.38;;;6.20;;
8036;SDS011;4061;51.360;7.340;2023-09-12T05:37:24;10.68;;;5.68;;
8036;SDS011;4061;51.360;7.340;2023-09-12T05:39:51;11.13;;;6.15;;
8036;SDS011;4061;51.360;7.340;2023-09-12T05:42:18;11.40;;;5.60;;
8036;SDS011;4061;51.360;7.340;2023-09-12T05:44:47;7.10;;;4.25;;
8036;SDS011;4061;51.360;7.340;2023-09-12T05:47:16;12.07;;;5.30;;
8036;SDS011;4061;51.360;7.340;2023-09-12T05:49:43;12.30;;;5.50;;
8036;SDS011;4061;51.360;7.340;2023-09-12T05:52:10;9.48;;;5.68;;
8036;SDS011;4061;51.360;7.340;2023-09-12T05:54:37;7.45;;;5.18;;
8036;SDS011;4061;51.360;7.340;2023-09-12T05:57:05;6.38;;;5.28;;
8036;SDS011;4061;51.360;7.340;2023-09-12T05:59:34;8.25;;;5.13;;
8036;SDS011;4061;51.360;7.340;2023-09-12T06:02:01;10.77;;;5.45;;
8036;SDS011;4061;51.360;7.340;2023-09-12T06:04:30;9.45;;;6.22;;
8036;SDS011;4061;51.360;7.340;2023-09-12T06:06:57;7.53;;;5.05;;
8036;SDS011;4061;51.360;7.340;2023-09-12T06:09:24;9.82;;;5.63;;
8036;SDS011;4061;51.360;7.340;2023-09-12T06:11:51;6.45;;;5.03;;
8036;SDS011;4061;51.360;7.340;2023-09-12T06:14:18;8.13;;;4.70;;
8036;SDS011;4061;51.360;7.340;2023-09-12T06:16:45;5.35;;;4.78;;
8036;SDS011;4061;51.360;7.340;2023-09-12T06:19:12;9.32;;;5.22;;
8036;SDS011;4061;51.360;7.340;2023-09-12T06:21:41;7.78;;;5.28;;
8036;SDS011;4061;51.360;7.340;2023-09-12T06:24:09;10.52;;;5.03;;
8036;SDS011;4061;51.360;7.340;2023-09-12T06:26:36;8.65;;;5.18;;
8036;SDS011;4061;51.360;7.340;2023-09-12T06:29:03;8.52;;;5.63;;
8036;SDS011;4061;51.360;7.340;2023-09-12T06:31:31;6.93;;;4.95;;
8036;SDS011;4061;51.360;7.340;2023-09-12T06:33:58;9.00;;;5.80;;
8036;SDS011;4061;51.360;7.340;2023-09-12T06:36:25;15.48;;;6.45;;
8036;SDS011;4061;51.360;7.340;2023-09-12T06:38:55;9.90;;;4.82;;
8036;SDS011;4061;51.360;7.340;2023-09-12T06:41:22;17.42;;;5.07;;
8036;SDS011;4061;51.360;7.340;2023-09-12T06:43:49;9.45;;;5.82;;
8036;SDS011;4061;51.360;7.340;2023-09-12T06:46:16;9.65;;;5.57;;
8036;SDS011;4061;51.360;7.340;2023-09-12T06:48:44;7.85;;;5.28;;
8036;SDS011;4061;51.360;7.340;2023-09-12T06:51:11;7.45;;;5.55;;
8036;SDS011;4061;51.360;7.340;2023-09-12T06:53:38;8.80;;;5.88;;
8036;SDS011;4061;51.360;7.340;2023-09-12T06:56:06;10.05;;;5.88;;
8036;SDS011;4061;51.360;7.340;2023-09-12T06:58:34;9.90;;;6.45;;
8036;SDS011;4061;51.360;7.340;2023-09-12T07:01:01;9.07;;;5.28;;
8036;SDS011;4061;51.360;7.340;2023-09-12T07:03:29;10.00;;;5.13;;
8036;SDS011;4061;51.360;7.340;2023-09-12T07:05:56;12.18;;;5.55;;
8036;SDS011;4061;51.360;7.340;2023-09-12T07:08:23;8.63;;;5.40;;
8036;SDS011;4061;51.360;7.340;2023-09-12T07:10:50;6.53;;;4.40;;
8036;SDS011;4061;51.360;7.340;2023-09-12T07:13:21;7.47;;;4.43;;
8036;SDS011;4061;51.360;7.340;2023-09-12T07:15:48;7.32;;;4.18;;
8036;SDS011;4061;51.360;7.340;2023-09-12T07:18:15;6.15;;;4.18;;
8036;SDS011;4061;51.360;7.340;2023-09-12T07:20:42;4.45;;;4.05;;
8036;SDS011;4061;51.360;7.340;2023-09-12T07:23:10;5.63;;;4.28;;
8036;SDS011;4061;51.360;7.340;2023-09-12T07:25:37;5.45;;;3.75;;
8036;SDS011;4061;51.360;7.340;2023-09-12T07:28:05;6.60;;;3.80;;
8036;SDS011;4061;51.360;7.340;2023-09-12T07:30:34;4.82;;;4.13;;
8036;SDS011;4061;51.360;7.340;2023-09-12T07:33:02;5.15;;;4.03;;
8036;SDS011;4061;51.360;7.340;2023-09-12T07:35:29;5.32;;;3.88;;
8036;SDS011;4061;51.360;7.340;2023-09-12T07:37:56;6.22;;;4.50;;
8036;SDS011;4061;51.360;7.340;2023-09-12T07:40:23;5.78;;;4.63;;
8036;SDS011;4061;51.360;7.340;2023-09-12T07:42:50;6.18;;;4.30;;
8036;SDS011;4061;51.360;7.340;2023-09-12T07:45:17;7.25;;;4.43;;
8036;SDS011;4061;51.360;7.340;2023-09-12T07:47:46;5.18;;;3.88;;
8036;SDS011;4061;51.360;7.340;2023-09-12T07:50:13;5.13;;;4.15;;
8036;SDS011;4061;51.360;7.340;2023-09-12T07:52:40;8.68;;;4.45;;
8036;SDS011;4061;51.360;7.340;2023-09-12T07:55:08;8.63;;;3.50;;
8036;SDS011;4061;51.360;7.340;2023-09-12T07:57:35;6.55;;;3.58;;
8036;SDS011;4061;51.360;7.340;2023-09-12T08:00:03;6.43;;;4.00;;
8036;SDS011;4061;51.360;7.340;2023-09-12T08:02:35;5.03;;;3.13;;
8036;SDS011;4061;51.360;7.340;2023-09-12T08:05:04;4.93;;;3.13;;
8036;SDS011;4061;51.360;7.340;2023-09-12T08:07:31;5.15;;;3.38;;
8036;SDS011;4061;51.360;7.340;2023-09-12T08:09:58;7.10;;;3.75;;
8036;SDS011;4061;51.360;7.340;2023-09-12T08:12:26;9.10;;;4.10;;
8036;SDS011;4061;51.360;7.340;2023-09-12T08:14:54;5.65;;;3.80;;
8036;SDS011;4061;51.360;7.340;2023-09-12T08:17:22;5.93;;;4.30;;
8036;SDS011;4061;51.360;7.340;2023-09-12T08:19:49;5.35;;;3.85;;
8036;SDS011;4061;51.360;7.340;2023-09-12T08:22:17;8.90;;;4.43;;
8036;SDS011;4061;51.360;7.340;2023-09-12T08:24:44;5.60;;;3.75;;
8036;SDS011;4061;51.360;7.340;2023-09-12T08:27:11;7.97;;;4.50;;
8036;SDS011;4061;51.360;7.340;2023-09-12T08:29:38;7.22;;;3.83;;
8036;SDS011;4061;51.360;7.340;2023-09-12T08:32:06;4.85;;;4.00;;
8036;SDS011;4061;51.360;7.340;2023-09-12T08:34:33;8.43;;;4.20;;
8036;SDS011;4061;51.360;7.340;2023-09-12T08:37:00;5.68;;;4.53;;
8036;SDS011;4061;51.360;7.340;2023-09-12T08:39:39;5.28;;;4.22;;
8036;SDS011;4061;51.360;7.340;2023-09-12T08:42:07;6.47;;;4.53;;
8036;SDS011;4061;51.360;7.340;2023-09-12T08:44:36;6.15;;;3.97;;
8036;SDS011;4061;51.360;7.340;2023-09-12T08:47:03;7.20;;;4.03;;
8036;SDS011;4061;51.360;7.340;2023-09-12T08:49:31;4.60;;;3.47;;
8036;SDS011;4061;51.360;7.340;2023-09-12T08:51:59;10.02;;;3.00;;
8036;SDS011;4061;51.360;7.340;2023-09-12T08:54:26;7.72;;;4.75;;
8036;SDS011;4061;51.360;7.340;2023-09-12T08:56:54;5.38;;;3.92;;
8036;SDS011;4061;51.360;7.340;2023-09-12T08:59:22;4.97;;;3.28;;
8036;SDS011;4061;51.360;7.340;2023-09-12T09:01:49;4.50;;;4.10;;
8036;SDS011;4061;51.360;7.340;2023-09-12T09:04:17;4.97;;;3.38;;
8036;SDS011;4061;51.360;7.340;2023-09-12T09:06:45;4.10;;;3.67;;
8036;SDS011;4061;51.360;7.340;2023-09-12T09:09:12;4.70;;;3.88;;
8036;SDS011;4061;51.360;7.340;2023-09-12T09:11:40;3.92;;;3.50;;
8036;SDS011;4061;51.360;7.340;2023-09-12T09:14:08;6.47;;;3.92;;
8036;SDS011;4061;51.360;7.340;2023-09-12T09:16:35;3.90;;;3.05;;
8036;SDS011;4061;51.360;7.340;2023-09-12T09:19:03;3.55;;;3.17;;
8036;SDS011;4061;51.360;7.340;2023-09-12T09:21:34;3.72;;;2.80;;
8036;SDS011;4061;51.360;7.340;2023-09-12T09:24:03;4.40;;;2.85;;
8036;SDS011;4061;51.360;7.340;2023-09-12T09:26:41;3.65;;;2.30;;
8036;SDS011;4061;51.360;7.340;2023-09-12T09:29:10;3.30;;;2.35;;
8036;SDS011;4061;51.360;7.340;2023-09-12T09:31:39;4.13;;;3.25;;
8036;SDS011;4061;51.360;7.340;2023-09-12T09:34:10;2.83;;;2.13;;
8036;SDS011;4061;51.360;7.340;2023-09-12T09:36:40;2.72;;;2.35;;
8036;SDS011;4061;51.360;7.340;2023-09-12T09:39:07;5.18;;;3.78;;
8036;SDS011;4061;51.360;7.340;2023-09-12T09:41:34;2.95;;;2.35;;
8036;SDS011;4061;51.360;7.340;2023-09-12T09:44:01;2.88;;;1.90;;
8036;SDS011;4061;51.360;7.340;2023-09-12T09:46:30;2.35;;;1.92;;
8036;SDS011;4061;51.360;7.340;2023-09-12T09:48:58;2.42;;;2.00;;
8036;SDS011;4061;51.360;7.340;2023-09-12T09:51:25;2.10;;;2.00;;
8036;SDS011;4061;51.360;7.340;2023-09-12T09:53:52;2.65;;;2.33;;
8036;SDS011;4061;51.360;7.340;2023-09-12T09:56:24;3.65;;;2.20;;
8036;SDS011;4061;51.360;7.340;2023-09-12T09:58:55;2.35;;;1.83;;
8036;SDS011;4061;51.360;7.340;2023-09-12T10:01:23;1.83;;;1.63;;
8036;SDS011;4061;51.360;7.340;2023-09-12T10:03:56;2.40;;;1.65;;
8036;SDS011;4061;51.360;7.340;2023-09-12T10:06:27;1.42;;;1.30;;
8036;SDS011;4061;51.360;7.340;2023-09-12T10:08:55;1.63;;;1.55;;
8036;SDS011;4061;51.360;7.340;2023-09-12T10:11:23;1.88;;;1.77;;
8036;SDS011;4061;51.360;7.340;2023-09-12T10:13:52;1.25;;;1.17;;
8036;SDS011;4061;51.360;7.340;2023-09-12T10:16:20;1.40;;;1.30;;
8036;SDS011;4061;51.360;7.340;2023-09-12T10:18:49;3.28;;;1.70;;
8036;SDS011;4061;51.360;7.340;2023-09-12T10:21:25;3.63;;;1.63;;
8036;SDS011;4061;51.360;7.340;2023-09-12T10:23:54;1.85;;;1.20;;
8036;SDS011;4061;51.360;7.340;2023-09-12T10:26:22;1.63;;;1.40;;
8036;SDS011;4061;51.360;7.340;2023-09-12T10:28:50;1.38;;;1.30;;
8036;SDS011;4061;51.360;7.340;2023-09-12T10:31:17;1.90;;;1.70;;
8036;SDS011;4061;51.360;7.340;2023-09-12T10:33:45;1.73;;;1.63;;
8036;SDS011;4061;51.360;7.340;2023-09-12T10:36:13;2.85;;;1.80;;
8036;SDS011;4061;51.360;7.340;2023-09-12T10:38:43;1.55;;;1.45;;
8036;SDS011;4061;51.360;7.340;2023-09-12T10:41:11;2.22;;;2.13;;
8036;SDS011;4061;51.360;7.340;2023-09-12T10:43:40;3.75;;;1.95;;
8036;SDS011;4061;51.360;7.340;2023-09-12T10:46:07;2.97;;;2.10;;
8036;SDS011;4061;51.360;7.340;2023-09-12T10:48:34;2.83;;;2.40;;
8036;SDS011;4061;51.360;7.340;2023-09-12T10:51:02;6.43;;;3.25;;
8036;SDS011;4061;51.360;7.340;2023-09-12T10:53:30;5.97;;;3.10;;
8036;SDS011;4061;51.360;7.340;2023-09-12T10:56:14;6.38;;;2.85;;
8036;SDS011;4061;51.360;7.340;2023-09-12T11:01:29;3.28;;;2.97;;
8036;SDS011;4061;51.360;7.340;2023-09-12T11:03:57;3.80;;;2.83;;
8036;SDS011;4061;51.360;7.340;2023-09-12T11:06:28;4.00;;;3.60;;
8036;SDS011;4061;51.360;7.340;2023-09-12T11:11:43;6.03;;;3.08;;
8036;SDS011;4061;51.360;7.340;2023-09-12T11:14:11;4.13;;;3.70;;
8036;SDS011;4061;51.360;7.340;2023-09-12T11:16:39;3.55;;;3.15;;
8036;SDS011;4061;51.360;7.340;2023-09-12T11:19:12;5.32;;;2.88;;
8036;SDS011;4061;51.360;7.340;2023-09-12T11:21:40;6.07;;;2.78;;
8036;SDS011;4061;51.360;7.340;2023-09-12T11:24:07;5.20;;;3.47;;
8036;SDS011;4061;51.360;7.340;2023-09-12T11:26:34;5.00;;;3.90;;
8036;SDS011;4061;51.360;7.340;2023-09-12T11:29:13;3.47;;;3.17;;
8036;SDS011;4061;51.360;7.340;2023-09-12T11:31:40;2.67;;;2.47;;
8036;SDS011;4061;51.360;7.340;2023-09-12T11:34:08;10.32;;;3.65;;
8036;SDS011;4061;51.360;7.340;2023-09-12T11:36:40;3.45;;;3.05;;
8036;SDS011;4061;51.360;7.340;2023-09-12T11:39:21;7.65;;;4.15;;
8036;SDS011;4061;51.360;7.340;2023-09-12T11:41:49;5.28;;;3.83;;
8036;SDS011;4061;51.360;7.340;2023-09-12T11:44:18;6.72;;;3.65;;
8036;SDS011;4061;51.360;7.340;2023-09-12T11:46:46;4.32;;;3.92;;
8036;SDS011;4061;51.360;7.340;2023-09-12T11:49:15;3.15;;;2.70;;
8036;SDS011;4061;51.360;7.340;2023-09-12T11:51:48;6.07;;;3.40;;
8036;SDS011;4061;51.360;7.340;2023-09-12T11:54:17;5.13;;;3.83;;
8036;SDS011;4061;51.360;7.340;2023-09-12T11:56:46;3.03;;;2.83;;
8036;SDS011;4061;51.360;7.340;2023-09-12T11:59:13;5.28;;;3.75;;
8036;SDS011;4061;51.360;7.340;2023-09-12T12:01:41;3.67;;;3.38;;
8036;SDS011;4061;51.360;7.340;2023-09-12T12:04:08;4.90;;;3.35;;
8036;SDS011;4061;51.360;7.340;2023-09-12T12:06:36;4.95;;;3.67;;
8036;SDS011;4061;51.360;7.340;2023-09-12T12:09:03;4.20;;;3.80;;
8036;SDS011;4061;51.360;7.340;2023-09-12T12:11:30;7.05;;;4.18;;
8036;SDS011;4061;51.360;7.340;2023-09-12T12:13:57;7.13;;;4.10;;
8036;SDS011;4061;51.360;7.340;2023-09-12T12:16:25;4.13;;;3.72;;
8036;SDS011;4061;51.360;7.340;2023-09-12T12:18:53;8.00;;;3.72;;
8036;SDS011;4061;51.360;7.340;2023-09-12T12:21:22;6.88;;;3.45;;
8036;SDS011;4061;51.360;7.340;2023-09-12T12:23:57;4.47;;;3.10;;
8036;SDS011;4061;51.360;7.340;2023-09-12T12:26:28;5.63;;;2.50;;
8036;SDS011;4061;51.360;7.340;2023-09-12T12:28:55;3.13;;;2.72;;
8036;SDS011;4061;51.360;7.340;2023-09-12T12:31:22;2.88;;;2.63;;
8036;SDS011;4061;51.360;7.340;2023-09-12T12:33:54;3.97;;;3.63;;
8036;SDS011;4061;51.360;7.340;2023-09-12T12:36:21;4.93;;;2.90;;
8036;SDS011;4061;51.360;7.340;2023-09-12T12:38:49;3.88;;;3.33;;
8036;SDS011;4061;51.360;7.340;2023-09-12T12:41:16;6.32;;;2.80;;
8036;SDS011;4061;51.360;7.340;2023-09-12T12:43:43;7.60;;;3.72;;
8036;SDS011;4061;51.360;7.340;2023-09-12T12:46:11;5.68;;;3.03;;
8036;SDS011;4061;51.360;7.340;2023-09-12T12:48:38;4.70;;;4.30;;
8036;SDS011;4061;51.360;7.340;2023-09-12T12:51:15;4.07;;;3.47;;
8036;SDS011;4061;51.360;7.340;2023-09-12T12:53:43;3.05;;;2.85;;
8036;SDS011;4061;51.360;7.340;2023-09-12T12:56:12;5.00;;;2.60;;
8036;SDS011;4061;51.360;7.340;2023-09-12T12:58:44;4.60;;;3.13;;
8036;SDS011;4061;51.360;7.340;2023-09-12T13:01:11;3.15;;;2.85;;
8036;SDS011;4061;51.360;7.340;2023-09-12T13:03:39;5.55;;;3.10;;
8036;SDS011;4061;51.360;7.340;2023-09-12T13:06:06;6.53;;;3.15;;
8036;SDS011;4061;51.360;7.340;2023-09-12T13:08:39;4.03;;;3.60;;
8036;SDS011;4061;51.360;7.340;2023-09-12T13:11:07;4.63;;;3.55;;
8036;SDS011;4061;51.360;7.340;2023-09-12T13:13:34;4.75;;;3.28;;
8036;SDS011;4061;51.360;7.340;2023-09-12T13:16:02;4.00;;;3.15;;
8036;SDS011;4061;51.360;7.340;2023-09-12T13:18:29;5.60;;;4.18;;
8036;SDS011;4061;51.360;7.340;2023-09-12T13:20:57;10.50;;;4.65;;
8036;SDS011;4061;51.360;7.340;2023-09-12T13:23:24;5.32;;;3.00;;
8036;SDS011;4061;51.360;7.340;2023-09-12T13:25:52;6.60;;;3.70;;
8036;SDS011;4061;51.360;7.340;2023-09-12T13:28:19;5.25;;;3.88;;
8036;SDS011;4061;51.360;7.340;2023-09-12T13:30:48;4.18;;;3.80;;
8036;SDS011;4061;51.360;7.340;2023-09-12T13:33:15;3.95;;;3.55;;
8036;SDS011;4061;51.360;7.340;2023-09-12T13:35:44;4.10;;;3.17;;
8036;SDS011;4061;51.360;7.340;2023-09-12T13:38:11;5.80;;;3.45;;
8036;SDS011;4061;51.360;7.340;2023-09-12T13:40:38;2.55;;;2.33;;
8036;SDS011;4061;51.360;7.340;2023-09-12T13:43:07;5.30;;;2.67;;
8036;SDS011;4061;51.360;7.340;2023-09-12T13:45:35;8.02;;;2.60;;
8036;SDS011;4061;51.360;7.340;2023-09-12T13:48:03;3.13;;;2.92;;
8036;SDS011;4061;51.360;7.340;2023-09-12T13:50:31;3.45;;;3.15;;
8036;SDS011;4061;51.360;7.340;2023-09-12T13:52:58;4.97;;;3.35;;
8036;SDS011;4061;51.360;7.340;2023-09-12T13:55:25;6.65;;;3.15;;
8036;SDS011;4061;51.360;7.340;2023-09-12T13:57:52;4.80;;;3.05;;
8036;SDS011;4061;51.360;7.340;2023-09-12T14:00:21;3.15;;;2.85;;
8036;SDS011;4061;51.360;7.340;2023-09-12T14:02:48;3.13;;;2.63;;
8036;SDS011;4061;51.360;7.340;2023-09-12T14:05:15;3.20;;;2.90;;
8036;SDS011;4061;51.360;7.340;2023-09-12T14:07:43;3.70;;;3.40;;
8036;SDS011;4061;51.360;7.340;2023-09-12T14:10:10;3.17;;;2.78;;
8036;SDS011;4061;51.360;7.340;2023-09-12T14:12:37;4.65;;;2.78;;
8036;SDS011;4061;51.360;7.340;2023-09-12T14:15:04;5.20;;;3.42;;
8036;SDS011;4061;51.360;7.340;2023-09-12T14:17:33;2.88;;;2.67;;
8036;SDS011;4061;51.360;7.340;2023-09-12T14:20:00;3.10;;;2.90;;
8036;SDS011;4061;51.360;7.340;2023-09-12T14:22:27;4.60;;;3.40;;
8036;SDS011;4061;51.360;7.340;2023-09-12T14:24:54;3.83;;;2.92;;
8036;SDS011;4061;51.360;7.340;2023-09-12T14:27:21;3.33;;;3.00;;
8036;SDS011;4061;51.360;7.340;2023-09-12T14:29:48;2.70;;;2.50;;
8036;SDS011;4061;51.360;7.340;2023-09-12T14:32:16;3.90;;;3.00;;
8036;SDS011;4061;51.360;7.340;2023-09-12T14:34:44;5.25;;;2.78;;
8036;SDS011;4061;51.360;7.340;2023-09-12T14:37:11;3.35;;;3.08;;
8036;SDS011;4061;51.360;7.340;2023-09-12T14:39:38;3.05;;;2.65;;
8036;SDS011;4061;51.360;7.340;2023-09-12T14:42:07;3.30;;;3.00;;
8036;SDS011;4061;51.360;7.340;2023-09-12T14:44:34;3.90;;;3.25;;
8036;SDS011;4061;51.360;7.340;2023-09-12T14:47:02;6.70;;;2.95;;
8036;SDS011;4061;51.360;7.340;2023-09-12T14:49:29;2.88;;;2.53;;
8036;SDS011;4061;51.360;7.340;2023-09-12T14:51:57;3.10;;;2.70;;
8036;SDS011;4061;51.360;7.340;2023-09-12T14:54:24;9.80;;;2.70;;
8036;SDS011;4061;51.360;7.340;2023-09-12T14:56:51;3.85;;;2.40;;
8036;SDS011;4061;51.360;7.340;2023-09-12T14:59:18;3.95;;;2.63;;
8036;SDS011;4061;51.360;7.340;2023-09-12T15:01:45;3.50;;;3.15;;
8036;SDS011;4061;51.360;7.340;2023-09-12T15:04:13;4.70;;;2.78;;
8036;SDS011;4061;51.360;7.340;2023-09-12T15:06:40;2.63;;;2.53;;
8036;SDS011;4061;51.360;7.340;2023-09-12T15:09:08;3.13;;;2.83;;
8036;SDS011;4061;51.360;7.340;2023-09-12T15:11:36;4.95;;;2.72;;
8036;SDS011;4061;51.360;7.340;2023-09-12T15:14:03;3.78;;;3.08;;
8036;SDS011;4061;51.360;7.340;2023-09-12T15:16:30;2.97;;;2.28;;
8036;SDS011;4061;51.360;7.340;2023-09-12T15:18:59;2.95;;;2.70;;
8036;SDS011;4061;51.360;7.340;2023-09-12T15:21:27;4.95;;;3.45;;